sensor_id;sensor_type;location;lat;lon;timestamp;temperature;humidity
27561;DHT22;15003;47.476;11.990;2022-07-17T00:01:13;23.20;44.50
27561;DHT22;15003;47.476;11.990;2022-07-17T00:03:39;23.10;44.60
27561;DHT22;15003;47.476;11.990;2022-07-17T00:06:06;23.10;44.60
27561;DHT22;15003;47.476;11.990;2022-07-17T00:08:31;23.10;44.60
27561;DHT22;15003;47.476;11.990;2022-07-17T00:10:58;23.00;44.50
27561;DHT22;15003;47.476;11.990;2022-07-17T00:13:24;23.00;44.90
27561;DHT22;15003;47.476;11.990;2022-07-17T00:15:51;23.00;45.00
27561;DHT22;15003;47.476;11.990;2022-07-17T00:18:17;22.90;45.00
27561;DHT22;15003;47.476;11.990;2022-07-17T00:20:43;22.90;45.00
27561;DHT22;15003;47.476;11.990;2022-07-17T00:23:08;22.80;45.10
27561;DHT22;15003;47.476;11.990;2022-07-17T00:25:34;22.80;45.10
27561;DHT22;15003;47.476;11.990;2022-07-17T00:28:00;22.80;45.30
27561;DHT22;15003;47.476;11.990;2022-07-17T00:30:26;22.70;45.40
27561;DHT22;15003;47.476;11.990;2022-07-17T00:32:51;22.70;45.50
27561;DHT22;15003;47.476;11.990;2022-07-17T00:35:17;22.70;45.40
27561;DHT22;15003;47.476;11.990;2022-07-17T00:37:45;22.70;45.30
27561;DHT22;15003;47.476;11.990;2022-07-17T00:40:14;22.60;45.30
27561;DHT22;15003;47.476;11.990;2022-07-17T00:42:43;22.60;45.50
27561;DHT22;15003;47.476;11.990;2022-07-17T00:45:10;22.50;45.50
27561;DHT22;15003;47.476;11.990;2022-07-17T00:47:56;22.50;45.80
27561;DHT22;15003;47.476;11.990;2022-07-17T00:50:28;22.50;46.50
27561;DHT22;15003;47.476;11.990;2022-07-17T00:52:55;22.40;46.20
27561;DHT22;15003;47.476;11.990;2022-07-17T00:55:22;22.40;46.30
27561;DHT22;15003;47.476;11.990;2022-07-17T00:57:50;22.30;46.40
27561;DHT22;15003;47.476;11.990;2022-07-17T01:00:17;22.30;46.60
27561;DHT22;15003;47.476;11.990;2022-07-17T01:02:47;22.30;46.80
27561;DHT22;15003;47.476;11.990;2022-07-17T01:05:15;22.30;47.10
27561;DHT22;15003;47.476;11.990;2022-07-17T01:07:43;22.20;46.80
27561;DHT22;15003;47.476;11.990;2022-07-17T01:10:09;22.20;46.80
27561;DHT22;15003;47.476;11.990;2022-07-17T01:12:36;22.20;46.90
27561;DHT22;15003;47.476;11.990;2022-07-17T01:15:03;22.20;47.10
27561;DHT22;15003;47.476;11.990;2022-07-17T01:17:30;22.10;47.50
27561;DHT22;15003;47.476;11.990;2022-07-17T01:19:56;22.10;47.50
27561;DHT22;15003;47.476;11.990;2022-07-17T01:22:22;22.20;47.50
27561;DHT22;15003;47.476;11.990;2022-07-17T01:24:48;22.20;47.40
27561;DHT22;15003;47.476;11.990;2022-07-17T01:27:15;22.10;47.30
27561;DHT22;15003;47.476;11.990;2022-07-17T01:29:41;22.10;47.10
27561;DHT22;15003;47.476;11.990;2022-07-17T01:32:07;22.10;47.20
27561;DHT22;15003;47.476;11.990;2022-07-17T01:34:33;22.10;47.20
27561;DHT22;15003;47.476;11.990;2022-07-17T01:36:58;22.00;47.10
27561;DHT22;15003;47.476;11.990;2022-07-17T01:39:24;22.00;47.10
27561;DHT22;15003;47.476;11.990;2022-07-17T01:41:50;22.00;47.20
27561;DHT22;15003;47.476;11.990;2022-07-17T01:44:16;21.90;47.30
27561;DHT22;15003;47.476;11.990;2022-07-17T01:46:41;21.90;47.40
27561;DHT22;15003;47.476;11.990;2022-07-17T01:49:07;21.90;47.70
27561;DHT22;15003;47.476;11.990;2022-07-17T01:51:33;21.80;47.70
27561;DHT22;15003;47.476;11.990;2022-07-17T01:53:59;21.80;47.60
27561;DHT22;15003;47.476;11.990;2022-07-17T01:56:24;21.80;47.60
27561;DHT22;15003;47.476;11.990;2022-07-17T01:58:50;21.80;47.70
27561;DHT22;15003;47.476;11.990;2022-07-17T02:01:16;21.80;47.80
27561;DHT22;15003;47.476;11.990;2022-07-17T02:03:41;21.70;47.90
27561;DHT22;15003;47.476;11.990;2022-07-17T02:06:09;21.70;47.90
27561;DHT22;15003;47.476;11.990;2022-07-17T02:08:35;21.70;47.90
27561;DHT22;15003;47.476;11.990;2022-07-17T02:11:00;21.60;48.00
27561;DHT22;15003;47.476;11.990;2022-07-17T02:13:26;21.60;48.00
27561;DHT22;15003;47.476;11.990;2022-07-17T02:15:52;21.60;48.00
27561;DHT22;15003;47.476;11.990;2022-07-17T02:18:18;21.60;48.00
27561;DHT22;15003;47.476;11.990;2022-07-17T02:20:43;21.50;47.80
27561;DHT22;15003;47.476;11.990;2022-07-17T02:23:09;21.50;48.00
27561;DHT22;15003;47.476;11.990;2022-07-17T02:25:35;21.40;48.10
27561;DHT22;15003;47.476;11.990;2022-07-17T02:28:00;21.40;48.50
27561;DHT22;15003;47.476;11.990;2022-07-17T02:30:26;21.40;48.70
27561;DHT22;15003;47.476;11.990;2022-07-17T02:32:52;21.40;48.80
27561;DHT22;15003;47.476;11.990;2022-07-17T02:35:18;21.40;49.00
27561;DHT22;15003;47.476;11.990;2022-07-17T02:37:43;21.40;49.10
27561;DHT22;15003;47.476;11.990;2022-07-17T02:40:10;21.30;49.20
27561;DHT22;15003;47.476;11.990;2022-07-17T02:42:36;21.30;48.90
27561;DHT22;15003;47.476;11.990;2022-07-17T02:45:02;21.30;49.00
27561;DHT22;15003;47.476;11.990;2022-07-17T02:47:31;21.30;49.30
27561;DHT22;15003;47.476;11.990;2022-07-17T02:49:58;21.30;49.40
27561;DHT22;15003;47.476;11.990;2022-07-17T02:52:24;21.30;49.10
27561;DHT22;15003;47.476;11.990;2022-07-17T02:54:50;21.30;48.90
27561;DHT22;15003;47.476;11.990;2022-07-17T02:57:16;21.30;48.80
27561;DHT22;15003;47.476;11.990;2022-07-17T02:59:42;21.30;48.90
27561;DHT22;15003;47.476;11.990;2022-07-17T03:02:08;21.30;49.00
27561;DHT22;15003;47.476;11.990;2022-07-17T03:04:33;21.20;48.90
27561;DHT22;15003;47.476;11.990;2022-07-17T03:06:59;21.20;48.90
27561;DHT22;15003;47.476;11.990;2022-07-17T03:09:25;21.20;49.00
27561;DHT22;15003;47.476;11.990;2022-07-17T03:11:51;21.20;49.00
27561;DHT22;15003;47.476;11.990;2022-07-17T03:14:17;21.10;49.00
27561;DHT22;15003;47.476;11.990;2022-07-17T03:16:42;21.10;49.00
27561;DHT22;15003;47.476;11.990;2022-07-17T03:19:08;21.10;49.10
27561;DHT22;15003;47.476;11.990;2022-07-17T03:21:34;21.00;49.10
27561;DHT22;15003;47.476;11.990;2022-07-17T03:24:00;21.00;49.10
27561;DHT22;15003;47.476;11.990;2022-07-17T03:26:26;21.00;49.30
27561;DHT22;15003;47.476;11.990;2022-07-17T03:28:52;20.90;49.50
27561;DHT22;15003;47.476;11.990;2022-07-17T03:31:18;20.90;49.50
27561;DHT22;15003;47.476;11.990;2022-07-17T03:33:43;20.90;49.50
27561;DHT22;15003;47.476;11.990;2022-07-17T03:36:09;20.90;49.50
27561;DHT22;15003;47.476;11.990;2022-07-17T03:38:35;20.90;49.50
27561;DHT22;15003;47.476;11.990;2022-07-17T03:41:01;20.90;49.70
27561;DHT22;15003;47.476;11.990;2022-07-17T03:43:27;20.80;49.60
27561;DHT22;15003;47.476;11.990;2022-07-17T03:45:52;20.80;49.50
27561;DHT22;15003;47.476;11.990;2022-07-17T03:48:18;20.80;49.40
27561;DHT22;15003;47.476;11.990;2022-07-17T03:50:44;20.80;49.40
27561;DHT22;15003;47.476;11.990;2022-07-17T03:53:10;20.80;49.50
27561;DHT22;15003;47.476;11.990;2022-07-17T03:55:36;20.80;49.70
27561;DHT22;15003;47.476;11.990;2022-07-17T03:58:02;20.70;49.90
27561;DHT22;15003;47.476;11.990;2022-07-17T04:00:28;20.70;50.00
27561;DHT22;15003;47.476;11.990;2022-07-17T04:02:54;20.80;50.10
27561;DHT22;15003;47.476;11.990;2022-07-17T04:05:20;20.80;50.10
27561;DHT22;15003;47.476;11.990;2022-07-17T04:07:46;20.80;50.20
27561;DHT22;15003;47.476;11.990;2022-07-17T04:10:13;20.80;50.30
27561;DHT22;15003;47.476;11.990;2022-07-17T04:12:40;20.80;50.20
27561;DHT22;15003;47.476;11.990;2022-07-17T04:15:08;20.80;50.00
27561;DHT22;15003;47.476;11.990;2022-07-17T04:17:34;20.80;49.90
27561;DHT22;15003;47.476;11.990;2022-07-17T04:20:00;20.80;49.90
27561;DHT22;15003;47.476;11.990;2022-07-17T04:22:26;20.80;49.90
27561;DHT22;15003;47.476;11.990;2022-07-17T04:24:52;20.90;49.90
27561;DHT22;15003;47.476;11.990;2022-07-17T04:27:18;20.90;50.00
27561;DHT22;15003;47.476;11.990;2022-07-17T04:29:44;21.00;50.10
27561;DHT22;15003;47.476;11.990;2022-07-17T04:32:10;21.00;49.80
27561;DHT22;15003;47.476;11.990;2022-07-17T04:34:36;21.20;49.50
27561;DHT22;15003;47.476;11.990;2022-07-17T04:37:03;21.20;49.10
27561;DHT22;15003;47.476;11.990;2022-07-17T04:39:30;21.30;49.00
27561;DHT22;15003;47.476;11.990;2022-07-17T04:41:56;21.30;49.00
27561;DHT22;15003;47.476;11.990;2022-07-17T04:44:22;21.40;48.90
27561;DHT22;15003;47.476;11.990;2022-07-17T04:46:48;21.40;49.00
27561;DHT22;15003;47.476;11.990;2022-07-17T04:49:13;21.50;49.60
27561;DHT22;15003;47.476;11.990;2022-07-17T04:51:40;21.60;49.10
27561;DHT22;15003;47.476;11.990;2022-07-17T04:54:06;21.60;48.90
27561;DHT22;15003;47.476;11.990;2022-07-17T04:56:31;21.70;48.40
27561;DHT22;15003;47.476;11.990;2022-07-17T04:58:57;21.70;48.20
27561;DHT22;15003;47.476;11.990;2022-07-17T05:01:23;21.80;48.20
27561;DHT22;15003;47.476;11.990;2022-07-17T05:03:49;21.80;48.40
27561;DHT22;15003;47.476;11.990;2022-07-17T05:06:14;21.80;48.60
27561;DHT22;15003;47.476;11.990;2022-07-17T05:08:40;21.80;48.70
27561;DHT22;15003;47.476;11.990;2022-07-17T05:11:06;21.90;48.70
27561;DHT22;15003;47.476;11.990;2022-07-17T05:13:32;21.90;48.80
27561;DHT22;15003;47.476;11.990;2022-07-17T05:15:57;22.00;48.70
27561;DHT22;15003;47.476;11.990;2022-07-17T05:18:23;22.10;48.60
27561;DHT22;15003;47.476;11.990;2022-07-17T05:20:49;22.20;48.50
27561;DHT22;15003;47.476;11.990;2022-07-17T05:23:15;22.30;48.60
27561;DHT22;15003;47.476;11.990;2022-07-17T05:25:40;22.30;48.30
27561;DHT22;15003;47.476;11.990;2022-07-17T05:28:06;22.40;47.90
27561;DHT22;15003;47.476;11.990;2022-07-17T05:30:32;22.50;47.40
27561;DHT22;15003;47.476;11.990;2022-07-17T05:32:58;22.50;47.50
27561;DHT22;15003;47.476;11.990;2022-07-17T05:35:23;22.60;47.40
27561;DHT22;15003;47.476;11.990;2022-07-17T05:37:49;22.70;47.00
27561;DHT22;15003;47.476;11.990;2022-07-17T05:40:15;22.80;46.70
27561;DHT22;15003;47.476;11.990;2022-07-17T05:42:41;22.80;46.50
27561;DHT22;15003;47.476;11.990;2022-07-17T05:45:07;22.80;46.70
27561;DHT22;15003;47.476;11.990;2022-07-17T05:47:33;22.90;46.80
27561;DHT22;15003;47.476;11.990;2022-07-17T05:49:58;23.00;46.70
27561;DHT22;15003;47.476;11.990;2022-07-17T05:52:24;23.00;46.30
27561;DHT22;15003;47.476;11.990;2022-07-17T05:54:50;23.10;46.10
27561;DHT22;15003;47.476;11.990;2022-07-17T05:57:16;23.10;46.00
27561;DHT22;15003;47.476;11.990;2022-07-17T05:59:42;23.20;46.40
27561;DHT22;15003;47.476;11.990;2022-07-17T06:02:07;23.20;45.50
27561;DHT22;15003;47.476;11.990;2022-07-17T06:04:33;23.30;45.40
27561;DHT22;15003;47.476;11.990;2022-07-17T06:06:59;23.30;45.40
27561;DHT22;15003;47.476;11.990;2022-07-17T06:09:25;23.30;45.10
27561;DHT22;15003;47.476;11.990;2022-07-17T06:11:51;23.40;45.00
27561;DHT22;15003;47.476;11.990;2022-07-17T06:14:16;23.40;44.90
27561;DHT22;15003;47.476;11.990;2022-07-17T06:16:42;23.50;45.00
27561;DHT22;15003;47.476;11.990;2022-07-17T06:19:08;23.50;45.00
27561;DHT22;15003;47.476;11.990;2022-07-17T06:21:34;23.50;45.10
27561;DHT22;15003;47.476;11.990;2022-07-17T06:24:00;23.60;44.90
27561;DHT22;15003;47.476;11.990;2022-07-17T06:26:25;23.60;45.00
27561;DHT22;15003;47.476;11.990;2022-07-17T06:28:51;23.70;44.90
27561;DHT22;15003;47.476;11.990;2022-07-17T06:31:17;23.70;44.90
27561;DHT22;15003;47.476;11.990;2022-07-17T06:33:43;23.80;44.30
27561;DHT22;15003;47.476;11.990;2022-07-17T06:36:09;23.90;43.90
27561;DHT22;15003;47.476;11.990;2022-07-17T06:38:35;23.90;43.80
27561;DHT22;15003;47.476;11.990;2022-07-17T06:41:03;24.00;43.70
27561;DHT22;15003;47.476;11.990;2022-07-17T06:43:29;24.00;43.60
27561;DHT22;15003;47.476;11.990;2022-07-17T06:45:54;24.10;43.60
27561;DHT22;15003;47.476;11.990;2022-07-17T06:48:21;24.10;43.70
27561;DHT22;15003;47.476;11.990;2022-07-17T06:50:47;24.20;43.60
27561;DHT22;15003;47.476;11.990;2022-07-17T06:53:13;24.20;43.20
27561;DHT22;15003;47.476;11.990;2022-07-17T06:55:41;24.30;43.10
27561;DHT22;15003;47.476;11.990;2022-07-17T06:58:07;24.30;43.00
27561;DHT22;15003;47.476;11.990;2022-07-17T07:00:33;24.30;42.90
27561;DHT22;15003;47.476;11.990;2022-07-17T07:03:00;24.40;42.60
27561;DHT22;15003;47.476;11.990;2022-07-17T07:05:26;24.40;42.60
27561;DHT22;15003;47.476;11.990;2022-07-17T07:07:52;24.40;42.60
27561;DHT22;15003;47.476;11.990;2022-07-17T07:10:17;24.50;42.70
27561;DHT22;15003;47.476;11.990;2022-07-17T07:12:43;24.50;42.50
27561;DHT22;15003;47.476;11.990;2022-07-17T07:15:09;24.60;42.70
27561;DHT22;15003;47.476;11.990;2022-07-17T07:17:36;24.70;42.70
27561;DHT22;15003;47.476;11.990;2022-07-17T07:20:03;24.70;43.00
27561;DHT22;15003;47.476;11.990;2022-07-17T07:22:29;24.80;42.90
27561;DHT22;15003;47.476;11.990;2022-07-17T07:24:56;24.90;42.50
27561;DHT22;15003;47.476;11.990;2022-07-17T07:27:21;24.90;42.40
27561;DHT22;15003;47.476;11.990;2022-07-17T07:29:47;25.00;42.70
27561;DHT22;15003;47.476;11.990;2022-07-17T07:32:13;25.00;42.60
27561;DHT22;15003;47.476;11.990;2022-07-17T07:34:39;25.00;42.40
27561;DHT22;15003;47.476;11.990;2022-07-17T07:37:05;25.00;42.10
27561;DHT22;15003;47.476;11.990;2022-07-17T07:39:30;25.10;42.10
27561;DHT22;15003;47.476;11.990;2022-07-17T07:41:56;25.20;42.30
27561;DHT22;15003;47.476;11.990;2022-07-17T07:44:22;25.20;41.80
27561;DHT22;15003;47.476;11.990;2022-07-17T07:46:48;25.20;41.90
27561;DHT22;15003;47.476;11.990;2022-07-17T07:49:14;25.20;42.00
27561;DHT22;15003;47.476;11.990;2022-07-17T07:51:39;25.30;42.10
27561;DHT22;15003;47.476;11.990;2022-07-17T07:54:05;25.30;41.80
27561;DHT22;15003;47.476;11.990;2022-07-17T07:56:31;25.40;42.00
27561;DHT22;15003;47.476;11.990;2022-07-17T07:58:56;25.40;41.50
27561;DHT22;15003;47.476;11.990;2022-07-17T08:01:22;25.50;41.50
27561;DHT22;15003;47.476;11.990;2022-07-17T08:03:48;25.60;42.00
27561;DHT22;15003;47.476;11.990;2022-07-17T08:06:14;25.60;41.60
27561;DHT22;15003;47.476;11.990;2022-07-17T08:08:40;25.70;41.30
27561;DHT22;15003;47.476;11.990;2022-07-17T08:11:06;25.80;41.00
27561;DHT22;15003;47.476;11.990;2022-07-17T08:13:32;25.90;40.70
27561;DHT22;15003;47.476;11.990;2022-07-17T08:15:58;25.90;40.70
27561;DHT22;15003;47.476;11.990;2022-07-17T08:18:23;26.00;40.30
27561;DHT22;15003;47.476;11.990;2022-07-17T08:20:50;26.00;40.30
27561;DHT22;15003;47.476;11.990;2022-07-17T08:23:15;26.10;40.60
27561;DHT22;15003;47.476;11.990;2022-07-17T08:25:41;26.10;41.00
27561;DHT22;15003;47.476;11.990;2022-07-17T08:28:07;26.20;41.40
27561;DHT22;15003;47.476;11.990;2022-07-17T08:30:33;26.30;41.30
27561;DHT22;15003;47.476;11.990;2022-07-17T08:32:58;26.40;41.10
27561;DHT22;15003;47.476;11.990;2022-07-17T08:35:24;26.50;40.30
27561;DHT22;15003;47.476;11.990;2022-07-17T08:37:51;26.60;40.00
27561;DHT22;15003;47.476;11.990;2022-07-17T08:42:47;26.80;40.10
27561;DHT22;15003;47.476;11.990;2022-07-17T08:45:13;26.90;40.10
27561;DHT22;15003;47.476;11.990;2022-07-17T08:47:39;27.00;39.90
27561;DHT22;15003;47.476;11.990;2022-07-17T08:50:05;27.10;40.00
27561;DHT22;15003;47.476;11.990;2022-07-17T08:52:32;27.20;40.20
27561;DHT22;15003;47.476;11.990;2022-07-17T08:54:58;27.30;40.30
27561;DHT22;15003;47.476;11.990;2022-07-17T08:57:24;27.30;39.70
27561;DHT22;15003;47.476;11.990;2022-07-17T08:59:50;27.40;39.40
27561;DHT22;15003;47.476;11.990;2022-07-17T09:02:15;27.50;39.40
27561;DHT22;15003;47.476;11.990;2022-07-17T09:04:41;27.60;39.40
27561;DHT22;15003;47.476;11.990;2022-07-17T09:07:07;27.70;39.10
27561;DHT22;15003;47.476;11.990;2022-07-17T09:09:33;27.70;38.20
27561;DHT22;15003;47.476;11.990;2022-07-17T09:12:00;27.80;38.40
27561;DHT22;15003;47.476;11.990;2022-07-17T09:14:37;27.80;38.60
27561;DHT22;15003;47.476;11.990;2022-07-17T09:17:05;27.90;38.00
27561;DHT22;15003;47.476;11.990;2022-07-17T09:19:43;28.00;37.90
27561;DHT22;15003;47.476;11.990;2022-07-17T09:22:13;28.10;37.80
27561;DHT22;15003;47.476;11.990;2022-07-17T09:24:49;28.20;37.90
27561;DHT22;15003;47.476;11.990;2022-07-17T09:27:33;28.20;38.40
27561;DHT22;15003;47.476;11.990;2022-07-17T09:30:08;28.40;37.60
27561;DHT22;15003;47.476;11.990;2022-07-17T09:32:40;28.60;37.50
27561;DHT22;15003;47.476;11.990;2022-07-17T09:35:09;28.70;37.20
27561;DHT22;15003;47.476;11.990;2022-07-17T09:37:36;28.90;36.30
27561;DHT22;15003;47.476;11.990;2022-07-17T09:40:09;29.00;36.50
27561;DHT22;15003;47.476;11.990;2022-07-17T09:42:36;29.10;36.40
27561;DHT22;15003;47.476;11.990;2022-07-17T09:45:05;29.20;35.80
27561;DHT22;15003;47.476;11.990;2022-07-17T09:47:34;29.30;35.30
27561;DHT22;15003;47.476;11.990;2022-07-17T09:50:04;29.50;34.90
27561;DHT22;15003;47.476;11.990;2022-07-17T09:52:33;29.50;35.30
27561;DHT22;15003;47.476;11.990;2022-07-17T09:55:01;29.60;35.20
27561;DHT22;15003;47.476;11.990;2022-07-17T09:57:32;29.60;34.90
27561;DHT22;15003;47.476;11.990;2022-07-17T10:00:03;29.70;34.60
27561;DHT22;15003;47.476;11.990;2022-07-17T10:02:31;29.80;34.70
27561;DHT22;15003;47.476;11.990;2022-07-17T10:04:57;29.80;35.60
27561;DHT22;15003;47.476;11.990;2022-07-17T10:07:23;29.90;36.00
27561;DHT22;15003;47.476;11.990;2022-07-17T10:09:50;29.90;35.20
27561;DHT22;15003;47.476;11.990;2022-07-17T10:12:16;30.00;34.90
27561;DHT22;15003;47.476;11.990;2022-07-17T10:14:47;30.10;35.00
27561;DHT22;15003;47.476;11.990;2022-07-17T10:17:14;30.10;34.70
27561;DHT22;15003;47.476;11.990;2022-07-17T10:19:50;30.10;35.10
27561;DHT22;15003;47.476;11.990;2022-07-17T10:22:19;30.20;35.10
27561;DHT22;15003;47.476;11.990;2022-07-17T10:25:04;30.20;34.40
27561;DHT22;15003;47.476;11.990;2022-07-17T10:27:30;30.30;34.60
27561;DHT22;15003;47.476;11.990;2022-07-17T10:30:06;30.40;35.60
27561;DHT22;15003;47.476;11.990;2022-07-17T10:32:33;30.50;35.10
27561;DHT22;15003;47.476;11.990;2022-07-17T10:35:02;30.60;35.30
27561;DHT22;15003;47.476;11.990;2022-07-17T10:40:12;30.90;34.80
27561;DHT22;15003;47.476;11.990;2022-07-17T10:43:04;31.00;33.60
27561;DHT22;15003;47.476;11.990;2022-07-17T10:48:08;31.30;32.80
27561;DHT22;15003;47.476;11.990;2022-07-17T10:50:44;31.40;33.00
27561;DHT22;15003;47.476;11.990;2022-07-17T10:53:32;31.50;32.10
27561;DHT22;15003;47.476;11.990;2022-07-17T10:56:07;31.60;32.50
27561;DHT22;15003;47.476;11.990;2022-07-17T10:58:37;31.70;31.90
27561;DHT22;15003;47.476;11.990;2022-07-17T11:01:15;31.70;32.70
27561;DHT22;15003;47.476;11.990;2022-07-17T11:03:57;31.80;31.40
27561;DHT22;15003;47.476;11.990;2022-07-17T11:06:27;31.80;31.60
27561;DHT22;15003;47.476;11.990;2022-07-17T11:09:05;31.90;32.40
27561;DHT22;15003;47.476;11.990;2022-07-17T11:11:47;31.90;33.10
27561;DHT22;15003;47.476;11.990;2022-07-17T11:14:19;32.20;32.20
27561;DHT22;15003;47.476;11.990;2022-07-17T11:16:56;32.20;32.40
27561;DHT22;15003;47.476;11.990;2022-07-17T11:19:36;32.40;32.50
27561;DHT22;15003;47.476;11.990;2022-07-17T11:22:05;32.50;32.50
27561;DHT22;15003;47.476;11.990;2022-07-17T11:24:48;32.60;31.70
27561;DHT22;15003;47.476;11.990;2022-07-17T11:27:22;32.80;31.70
27561;DHT22;15003;47.476;11.990;2022-07-17T11:29:51;32.80;30.70
27561;DHT22;15003;47.476;11.990;2022-07-17T11:32:17;32.80;30.90
27561;DHT22;15003;47.476;11.990;2022-07-17T11:34:43;32.90;31.40
27561;DHT22;15003;47.476;11.990;2022-07-17T11:37:10;33.00;30.80
27561;DHT22;15003;47.476;11.990;2022-07-17T11:39:44;32.90;30.40
27561;DHT22;15003;47.476;11.990;2022-07-17T11:42:14;33.00;30.60
27561;DHT22;15003;47.476;11.990;2022-07-17T11:44:42;33.00;30.20
27561;DHT22;15003;47.476;11.990;2022-07-17T11:47:08;33.00;30.80
27561;DHT22;15003;47.476;11.990;2022-07-17T11:49:36;33.00;30.70
27561;DHT22;15003;47.476;11.990;2022-07-17T11:52:14;33.10;31.50
27561;DHT22;15003;47.476;11.990;2022-07-17T11:54:48;33.20;31.30
27561;DHT22;15003;47.476;11.990;2022-07-17T11:57:16;33.20;31.50
27561;DHT22;15003;47.476;11.990;2022-07-17T11:59:43;33.20;30.10
27561;DHT22;15003;47.476;11.990;2022-07-17T12:02:12;33.30;30.20
27561;DHT22;15003;47.476;11.990;2022-07-17T12:04:52;33.30;30.90
27561;DHT22;15003;47.476;11.990;2022-07-17T12:07:21;33.30;31.00
27561;DHT22;15003;47.476;11.990;2022-07-17T12:09:48;33.40;31.20
27561;DHT22;15003;47.476;11.990;2022-07-17T12:12:25;33.40;30.00
27561;DHT22;15003;47.476;11.990;2022-07-17T12:14:57;33.40;30.00
27561;DHT22;15003;47.476;11.990;2022-07-17T12:17:35;33.40;30.00
27561;DHT22;15003;47.476;11.990;2022-07-17T12:20:04;33.40;29.10
27561;DHT22;15003;47.476;11.990;2022-07-17T12:22:30;33.40;28.80
27561;DHT22;15003;47.476;11.990;2022-07-17T12:25:07;33.30;28.60
27561;DHT22;15003;47.476;11.990;2022-07-17T12:27:33;33.20;29.20
27561;DHT22;15003;47.476;11.990;2022-07-17T12:29:59;33.20;29.90
27561;DHT22;15003;47.476;11.990;2022-07-17T12:32:25;33.10;29.30
27561;DHT22;15003;47.476;11.990;2022-07-17T12:34:50;33.10;29.30
27561;DHT22;15003;47.476;11.990;2022-07-17T12:37:21;33.10;29.30
27561;DHT22;15003;47.476;11.990;2022-07-17T12:39:48;33.10;29.90
27561;DHT22;15003;47.476;11.990;2022-07-17T12:42:15;33.10;29.50
27561;DHT22;15003;47.476;11.990;2022-07-17T12:44:42;33.00;29.60
27561;DHT22;15003;47.476;11.990;2022-07-17T12:47:09;33.00;29.80
27561;DHT22;15003;47.476;11.990;2022-07-17T12:49:34;33.10;29.30
27561;DHT22;15003;47.476;11.990;2022-07-17T12:52:00;33.10;29.20
27561;DHT22;15003;47.476;11.990;2022-07-17T12:54:26;33.10;29.40
27561;DHT22;15003;47.476;11.990;2022-07-17T12:56:52;33.00;29.50
27561;DHT22;15003;47.476;11.990;2022-07-17T12:59:18;33.00;29.40
27561;DHT22;15003;47.476;11.990;2022-07-17T13:01:44;33.00;29.20
27561;DHT22;15003;47.476;11.990;2022-07-17T13:04:10;33.00;29.90
27561;DHT22;15003;47.476;11.990;2022-07-17T13:06:35;33.10;29.80
27561;DHT22;15003;47.476;11.990;2022-07-17T13:09:01;33.10;30.00
27561;DHT22;15003;47.476;11.990;2022-07-17T13:11:27;33.20;29.80
27561;DHT22;15003;47.476;11.990;2022-07-17T13:13:54;33.20;29.60
27561;DHT22;15003;47.476;11.990;2022-07-17T13:16:20;33.30;29.90
27561;DHT22;15003;47.476;11.990;2022-07-17T13:18:46;33.40;29.90
27561;DHT22;15003;47.476;11.990;2022-07-17T13:21:12;33.40;29.70
27561;DHT22;15003;47.476;11.990;2022-07-17T13:23:38;33.50;29.60
27561;DHT22;15003;47.476;11.990;2022-07-17T13:26:04;33.50;30.10
27561;DHT22;15003;47.476;11.990;2022-07-17T13:28:31;33.60;29.80
27561;DHT22;15003;47.476;11.990;2022-07-17T13:30:57;33.60;29.50
27561;DHT22;15003;47.476;11.990;2022-07-17T13:33:24;33.70;29.30
27561;DHT22;15003;47.476;11.990;2022-07-17T13:35:50;33.70;28.90
27561;DHT22;15003;47.476;11.990;2022-07-17T13:38:16;33.60;28.70
27561;DHT22;15003;47.476;11.990;2022-07-17T13:40:41;33.60;29.10
27561;DHT22;15003;47.476;11.990;2022-07-17T13:43:08;33.60;29.30
27561;DHT22;15003;47.476;11.990;2022-07-17T13:45:34;33.60;29.50
27561;DHT22;15003;47.476;11.990;2022-07-17T13:48:00;33.60;30.20
27561;DHT22;15003;47.476;11.990;2022-07-17T13:50:27;33.60;29.70
27561;DHT22;15003;47.476;11.990;2022-07-17T13:52:53;33.60;29.10
27561;DHT22;15003;47.476;11.990;2022-07-17T13:55:19;33.60;28.80
27561;DHT22;15003;47.476;11.990;2022-07-17T13:57:45;33.60;29.30
27561;DHT22;15003;47.476;11.990;2022-07-17T14:00:11;33.60;29.80
27561;DHT22;15003;47.476;11.990;2022-07-17T14:02:38;33.60;30.10
27561;DHT22;15003;47.476;11.990;2022-07-17T14:05:06;33.70;30.30
27561;DHT22;15003;47.476;11.990;2022-07-17T14:07:33;33.70;30.10
27561;DHT22;15003;47.476;11.990;2022-07-17T14:09:59;33.80;29.70
27561;DHT22;15003;47.476;11.990;2022-07-17T14:12:25;33.80;29.50
27561;DHT22;15003;47.476;11.990;2022-07-17T14:14:51;33.90;29.80
27561;DHT22;15003;47.476;11.990;2022-07-17T14:17:17;33.90;29.40
27561;DHT22;15003;47.476;11.990;2022-07-17T14:19:44;33.90;29.50
27561;DHT22;15003;47.476;11.990;2022-07-17T14:22:10;33.90;29.50
27561;DHT22;15003;47.476;11.990;2022-07-17T14:24:36;33.90;29.50
27561;DHT22;15003;47.476;11.990;2022-07-17T14:27:02;33.80;29.60
27561;DHT22;15003;47.476;11.990;2022-07-17T14:29:28;33.80;29.80
27561;DHT22;15003;47.476;11.990;2022-07-17T14:31:54;33.80;29.50
27561;DHT22;15003;47.476;11.990;2022-07-17T14:34:20;33.80;29.50
27561;DHT22;15003;47.476;11.990;2022-07-17T14:36:45;33.80;29.30
27561;DHT22;15003;47.476;11.990;2022-07-17T14:39:11;33.70;29.40
27561;DHT22;15003;47.476;11.990;2022-07-17T14:41:38;33.70;29.10
27561;DHT22;15003;47.476;11.990;2022-07-17T14:44:05;33.60;29.00
27561;DHT22;15003;47.476;11.990;2022-07-17T14:46:31;33.50;29.20
27561;DHT22;15003;47.476;11.990;2022-07-17T14:48:56;33.50;29.20
27561;DHT22;15003;47.476;11.990;2022-07-17T14:51:22;33.30;29.40
27561;DHT22;15003;47.476;11.990;2022-07-17T14:53:48;33.30;29.90
27561;DHT22;15003;47.476;11.990;2022-07-17T14:56:14;33.20;30.00
27561;DHT22;15003;47.476;11.990;2022-07-17T14:58:39;33.10;29.90
27561;DHT22;15003;47.476;11.990;2022-07-17T15:01:05;33.10;29.80
27561;DHT22;15003;47.476;11.990;2022-07-17T15:03:31;33.10;30.00
27561;DHT22;15003;47.476;11.990;2022-07-17T15:05:57;33.10;30.00
27561;DHT22;15003;47.476;11.990;2022-07-17T15:08:23;33.10;30.10
27561;DHT22;15003;47.476;11.990;2022-07-17T15:10:49;33.10;30.00
27561;DHT22;15003;47.476;11.990;2022-07-17T15:13:15;33.10;30.10
27561;DHT22;15003;47.476;11.990;2022-07-17T15:15:40;33.10;30.00
27561;DHT22;15003;47.476;11.990;2022-07-17T15:18:06;33.10;30.20
27561;DHT22;15003;47.476;11.990;2022-07-17T15:20:32;33.10;30.20
27561;DHT22;15003;47.476;11.990;2022-07-17T15:22:58;33.00;30.40